PWSweather.com
Personal Weather Stations
Station Observations
MENWDWX1
Menstrie, ScotlandGB

MenstrieScotlandGB

Lat: 56.148322, Lon: -3.85483

Elevation: 62

Station Type: Davis Vantage Pro 2

High Low Average
Temperature 48.6°F9.2°C 45.5°F7.5°C 47.1°F8.4°C
Dew Point 42.3°F5.7°C 39.2°F4.0°C 40.4°F4.7°C
Winds 18.4 mph 29.6 kmh 1.2 mph 1.9 kmh 9.0 mph WSW14.5 kmh WSW
Wind Gusts 26.5 mph42.6 kmh 1.2 mph1.9 kmh 13.0 mph20.9 kmh
Humidity 80% 76% 77%
Pressure 30.38 in1028.8 mb 30.15 in1021.0 mb -
Precipitation 0.00 in0.0 mm - -
Hour Temp Dew Point Humidity Winds Wind Gusts Pressure Precip Precip Rate Daily Precip Total
12:00 AM 46.6°F8.1°C 40.8°F4.9°C 80% 3.5 mph W5.6 kmh W 9.2 mph14.8 kmh 30.38 in1028.8 mb - 0.00 in0.0 mm 0.00 in0.0 mm
12:05 AM 46.8°F8.2°C 41.0°F5.0°C 80% 4.6 mph W7.4 kmh W 8.1 mph13.0 kmh 30.38 in1028.8 mb - 0.00 in0.0 mm 0.00 in0.0 mm
12:10 AM 46.9°F8.3°C 41.1°F5.1°C 80% 4.6 mph W7.4 kmh W 10.4 mph16.7 kmh 30.38 in1028.8 mb - 0.00 in0.0 mm 0.00 in0.0 mm
12:15 AM 47.0°F8.3°C 41.1°F5.1°C 80% 6.9 mph W11.1 kmh W 10.4 mph16.7 kmh 30.38 in1028.8 mb - 0.00 in0.0 mm 0.00 in0.0 mm
12:20 AM 47.0°F8.3°C 41.2°F5.1°C 80% 4.6 mph W7.4 kmh W 4.6 mph7.4 kmh 30.38 in1028.8 mb - 0.00 in0.0 mm 0.00 in0.0 mm
12:25 AM 47.1°F8.4°C 40.9°F4.9°C 79% 4.6 mph W7.4 kmh W 5.8 mph9.3 kmh 30.38 in1028.8 mb - 0.00 in0.0 mm 0.00 in0.0 mm
12:30 AM 47.1°F8.4°C 40.9°F4.9°C 79% 3.5 mph W5.6 kmh W 3.5 mph5.6 kmh 30.38 in1028.8 mb - 0.00 in0.0 mm 0.00 in0.0 mm
12:35 AM 47.0°F8.3°C 40.8°F4.9°C 79% 4.6 mph W7.4 kmh W 8.1 mph13.0 kmh 30.38 in1028.8 mb - 0.00 in0.0 mm 0.00 in0.0 mm
12:40 AM 47.0°F8.3°C 40.8°F4.9°C 79% 5.8 mph W9.3 kmh W 10.4 mph16.7 kmh 30.37 in1028.4 mb - 0.00 in0.0 mm 0.00 in0.0 mm
12:45 AM 47.1°F8.4°C 40.9°F4.9°C 79% 6.9 mph W11.1 kmh W 10.4 mph16.7 kmh 30.37 in1028.4 mb - 0.00 in0.0 mm 0.00 in0.0 mm
12:50 AM 47.2°F8.4°C 41.0°F5.0°C 79% 6.9 mph WSW11.1 kmh WSW 10.4 mph16.7 kmh 30.37 in1028.4 mb - 0.00 in0.0 mm 0.00 in0.0 mm
12:55 AM 47.2°F8.4°C 40.7°F4.8°C 78% 6.9 mph WSW11.1 kmh WSW 9.2 mph14.8 kmh 30.38 in1028.8 mb - 0.00 in0.0 mm 0.00 in0.0 mm
01:00 AM 47.1°F8.4°C 40.6°F4.8°C 78% 5.8 mph WSW9.3 kmh WSW 10.4 mph16.7 kmh 30.38 in1028.8 mb - 0.00 in0.0 mm 0.00 in0.0 mm
01:05 AM 47.2°F8.4°C 40.7°F4.8°C 78% 6.9 mph WSW11.1 kmh WSW 10.4 mph16.7 kmh 30.37 in1028.4 mb - 0.00 in0.0 mm 0.00 in0.0 mm
01:10 AM 47.2°F8.4°C 40.7°F4.8°C 78% 3.5 mph WSW5.6 kmh WSW 4.6 mph7.4 kmh 30.38 in1028.8 mb - 0.00 in0.0 mm 0.00 in0.0 mm
01:15 AM 47.1°F8.4°C 40.6°F4.8°C 78% 2.3 mph W3.7 kmh W 8.1 mph13.0 kmh 30.37 in1028.4 mb - 0.00 in0.0 mm 0.00 in0.0 mm
01:20 AM 47.0°F8.3°C 40.5°F4.7°C 78% 3.5 mph W5.6 kmh W 6.9 mph11.1 kmh 30.37 in1028.4 mb - 0.00 in0.0 mm 0.00 in0.0 mm
01:25 AM 47.0°F8.3°C 40.5°F4.7°C 78% 4.6 mph WSW7.4 kmh WSW 8.1 mph13.0 kmh 30.37 in1028.4 mb - 0.00 in0.0 mm 0.00 in0.0 mm
01:30 AM 47.0°F8.3°C 40.5°F4.7°C 78% 4.6 mph WNW7.4 kmh WNW 3.5 mph5.6 kmh 30.37 in1028.4 mb - 0.00 in0.0 mm 0.00 in0.0 mm
01:35 AM 47.0°F8.3°C 40.5°F4.7°C 78% 5.8 mph WSW9.3 kmh WSW 11.5 mph18.5 kmh 30.37 in1028.4 mb - 0.00 in0.0 mm 0.00 in0.0 mm
01:40 AM 47.0°F8.3°C 40.5°F4.7°C 78% 4.6 mph W7.4 kmh W 5.8 mph9.3 kmh 30.37 in1028.4 mb - 0.00 in0.0 mm 0.00 in0.0 mm
01:45 AM 47.0°F8.3°C 40.5°F4.7°C 78% 2.3 mph W3.7 kmh W 3.5 mph5.6 kmh 30.37 in1028.4 mb - 0.00 in0.0 mm 0.00 in0.0 mm
01:50 AM 47.0°F8.3°C 40.5°F4.7°C 78% 3.5 mph W5.6 kmh W 5.8 mph9.3 kmh 30.37 in1028.4 mb - 0.00 in0.0 mm 0.00 in0.0 mm
01:55 AM 46.9°F8.3°C 40.4°F4.7°C 78% 4.6 mph W7.4 kmh W 8.1 mph13.0 kmh 30.37 in1028.4 mb - 0.00 in0.0 mm 0.00 in0.0 mm
02:00 AM 46.9°F8.3°C 40.4°F4.7°C 78% 4.6 mph W7.4 kmh W 5.8 mph9.3 kmh 30.37 in1028.4 mb - 0.00 in0.0 mm 0.00 in0.0 mm
02:05 AM 46.9°F8.3°C 40.4°F4.7°C 78% 3.5 mph W5.6 kmh W 6.9 mph11.1 kmh 30.37 in1028.4 mb - 0.00 in0.0 mm 0.00 in0.0 mm
02:10 AM 46.9°F8.3°C 40.4°F4.7°C 78% 5.8 mph W9.3 kmh W 11.5 mph18.5 kmh 30.37 in1028.4 mb - 0.00 in0.0 mm 0.00 in0.0 mm
02:15 AM 47.0°F8.3°C 40.5°F4.7°C 78% 4.6 mph W7.4 kmh W 6.9 mph11.1 kmh 30.37 in1028.4 mb - 0.00 in0.0 mm 0.00 in0.0 mm
02:20 AM 47.0°F8.3°C 40.5°F4.7°C 78% 5.8 mph W9.3 kmh W 8.1 mph13.0 kmh 30.37 in1028.4 mb - 0.00 in0.0 mm 0.00 in0.0 mm
02:25 AM 47.0°F8.3°C 40.5°F4.7°C 78% 5.8 mph W9.3 kmh W 8.1 mph13.0 kmh 30.37 in1028.4 mb - 0.00 in0.0 mm 0.00 in0.0 mm
02:30 AM 47.0°F8.3°C 40.5°F4.7°C 78% 4.6 mph WSW7.4 kmh WSW 3.5 mph5.6 kmh 30.37 in1028.4 mb - 0.00 in0.0 mm 0.00 in0.0 mm
02:35 AM 47.0°F8.3°C 40.5°F4.7°C 78% 8.1 mph W13.0 kmh W 13.8 mph22.2 kmh 30.37 in1028.4 mb - 0.00 in0.0 mm 0.00 in0.0 mm
02:40 AM 47.0°F8.3°C 40.5°F4.7°C 78% 6.9 mph W11.1 kmh W 9.2 mph14.8 kmh 30.37 in1028.4 mb - 0.00 in0.0 mm 0.00 in0.0 mm
02:45 AM 46.9°F8.3°C 40.4°F4.7°C 78% 8.1 mph WSW13.0 kmh WSW 11.5 mph18.5 kmh 30.37 in1028.4 mb - 0.00 in0.0 mm 0.00 in0.0 mm
02:50 AM 46.8°F8.2°C 40.3°F4.6°C 78% 8.1 mph W13.0 kmh W 11.5 mph18.5 kmh 30.37 in1028.4 mb - 0.00 in0.0 mm 0.00 in0.0 mm
02:55 AM 46.7°F8.2°C 40.2°F4.6°C 78% 8.1 mph W13.0 kmh W 11.5 mph18.5 kmh 30.36 in1028.1 mb - 0.00 in0.0 mm 0.00 in0.0 mm
03:00 AM 46.5°F8.1°C 40.0°F4.4°C 78% 4.6 mph WSW7.4 kmh WSW 5.8 mph9.3 kmh 30.37 in1028.4 mb - 0.00 in0.0 mm 0.00 in0.0 mm
03:05 AM 46.4°F8.0°C 39.9°F4.4°C 78% 5.8 mph W9.3 kmh W 9.2 mph14.8 kmh 30.37 in1028.4 mb - 0.00 in0.0 mm 0.00 in0.0 mm
03:10 AM 46.3°F7.9°C 39.8°F4.3°C 78% 4.6 mph W7.4 kmh W 9.2 mph14.8 kmh 30.36 in1028.1 mb - 0.00 in0.0 mm 0.00 in0.0 mm
03:15 AM 46.2°F7.9°C 39.7°F4.3°C 78% 5.8 mph WSW9.3 kmh WSW 13.8 mph22.2 kmh 30.36 in1028.1 mb - 0.00 in0.0 mm 0.00 in0.0 mm
03:20 AM 46.3°F7.9°C 39.8°F4.3°C 78% 8.1 mph WSW13.0 kmh WSW 13.8 mph22.2 kmh 30.36 in1028.1 mb - 0.00 in0.0 mm 0.00 in0.0 mm
03:25 AM 46.5°F8.1°C 40.0°F4.4°C 78% 6.9 mph WSW11.1 kmh WSW 9.2 mph14.8 kmh 30.36 in1028.1 mb - 0.00 in0.0 mm 0.00 in0.0 mm
03:30 AM 46.5°F8.1°C 40.0°F4.4°C 78% 8.1 mph WSW13.0 kmh WSW 15.0 mph24.1 kmh 30.36 in1028.1 mb - 0.00 in0.0 mm 0.00 in0.0 mm
03:35 AM 46.3°F7.9°C 39.8°F4.3°C 78% 9.2 mph W14.8 kmh W 11.5 mph18.5 kmh 30.36 in1028.1 mb - 0.00 in0.0 mm 0.00 in0.0 mm
03:40 AM 46.1°F7.8°C 39.6°F4.2°C 78% 9.2 mph WSW14.8 kmh WSW 13.8 mph22.2 kmh 30.36 in1028.1 mb - 0.00 in0.0 mm 0.00 in0.0 mm
03:45 AM 46.0°F7.8°C 39.5°F4.2°C 78% 5.8 mph WSW9.3 kmh WSW 11.5 mph18.5 kmh 30.36 in1028.1 mb - 0.00 in0.0 mm 0.00 in0.0 mm
03:50 AM 45.9°F7.7°C 39.4°F4.1°C 78% 6.9 mph WSW11.1 kmh WSW 10.4 mph16.7 kmh 30.36 in1028.1 mb - 0.00 in0.0 mm 0.00 in0.0 mm
03:55 AM 45.8°F7.7°C 39.3°F4.1°C 78% 2.3 mph W3.7 kmh W 6.9 mph11.1 kmh 30.36 in1028.1 mb - 0.00 in0.0 mm 0.00 in0.0 mm
04:00 AM 45.7°F7.6°C 39.2°F4.0°C 78% 5.8 mph WSW9.3 kmh WSW 11.5 mph18.5 kmh 30.36 in1028.1 mb - 0.00 in0.0 mm 0.00 in0.0 mm
04:05 AM 45.7°F7.6°C 39.2°F4.0°C 78% 4.6 mph WSW7.4 kmh WSW 6.9 mph11.1 kmh 30.36 in1028.1 mb - 0.00 in0.0 mm 0.00 in0.0 mm
04:10 AM 45.7°F7.6°C 39.2°F4.0°C 78% 6.9 mph W11.1 kmh W 11.5 mph18.5 kmh 30.36 in1028.1 mb - 0.00 in0.0 mm 0.00 in0.0 mm
04:15 AM 45.8°F7.7°C 39.3°F4.1°C 78% 8.1 mph WSW13.0 kmh WSW 17.3 mph27.8 kmh 30.36 in1028.1 mb - 0.00 in0.0 mm 0.00 in0.0 mm
04:20 AM 46.0°F7.8°C 39.5°F4.2°C 78% 6.9 mph WSW11.1 kmh WSW 11.5 mph18.5 kmh 30.36 in1028.1 mb - 0.00 in0.0 mm 0.00 in0.0 mm
04:25 AM 46.2°F7.9°C 39.7°F4.3°C 78% 6.9 mph WSW11.1 kmh WSW 13.8 mph22.2 kmh 30.36 in1028.1 mb - 0.00 in0.0 mm 0.00 in0.0 mm
04:30 AM 46.4°F8.0°C 39.9°F4.4°C 78% 8.1 mph WSW13.0 kmh WSW 15.0 mph24.1 kmh 30.36 in1028.1 mb - 0.00 in0.0 mm 0.00 in0.0 mm
04:35 AM 46.5°F8.1°C 40.0°F4.4°C 78% 10.4 mph WSW16.7 kmh WSW 11.5 mph18.5 kmh 30.36 in1028.1 mb - 0.00 in0.0 mm 0.00 in0.0 mm
04:40 AM 46.4°F8.0°C 39.9°F4.4°C 78% 9.2 mph W14.8 kmh W 12.7 mph20.4 kmh 30.36 in1028.1 mb - 0.00 in0.0 mm 0.00 in0.0 mm
04:45 AM 46.3°F7.9°C 39.8°F4.3°C 78% 9.2 mph WSW14.8 kmh WSW 12.7 mph20.4 kmh 30.36 in1028.1 mb - 0.00 in0.0 mm 0.00 in0.0 mm
04:50 AM 46.1°F7.8°C 39.6°F4.2°C 78% 8.1 mph WSW13.0 kmh WSW 13.8 mph22.2 kmh 30.35 in1027.8 mb - 0.00 in0.0 mm 0.00 in0.0 mm
04:55 AM 46.0°F7.8°C 39.5°F4.2°C 78% 8.1 mph WSW13.0 kmh WSW 11.5 mph18.5 kmh 30.35 in1027.8 mb - 0.00 in0.0 mm 0.00 in0.0 mm
05:00 AM 45.9°F7.7°C 39.4°F4.1°C 78% 6.9 mph WSW11.1 kmh WSW 16.1 mph25.9 kmh 30.35 in1027.8 mb - 0.00 in0.0 mm 0.00 in0.0 mm
05:05 AM 45.8°F7.7°C 39.3°F4.1°C 78% 8.1 mph WSW13.0 kmh WSW 9.2 mph14.8 kmh 30.35 in1027.8 mb - 0.00 in0.0 mm 0.00 in0.0 mm
05:10 AM 45.7°F7.6°C 39.2°F4.0°C 78% 9.2 mph WSW14.8 kmh WSW 11.5 mph18.5 kmh 30.34 in1027.4 mb - 0.00 in0.0 mm 0.00 in0.0 mm
05:15 AM 45.5°F7.5°C 39.4°F4.1°C 79% 8.1 mph WSW13.0 kmh WSW 10.4 mph16.7 kmh 30.34 in1027.4 mb - 0.00 in0.0 mm 0.00 in0.0 mm
05:20 AM 45.5°F7.5°C 39.4°F4.1°C 79% 5.8 mph W9.3 kmh W 11.5 mph18.5 kmh 30.34 in1027.4 mb - 0.00 in0.0 mm 0.00 in0.0 mm
05:25 AM 45.5°F7.5°C 39.4°F4.1°C 79% 8.1 mph WSW13.0 kmh WSW 11.5 mph18.5 kmh 30.34 in1027.4 mb - 0.00 in0.0 mm 0.00 in0.0 mm
05:30 AM 45.6°F7.6°C 39.5°F4.2°C 79% 6.9 mph WSW11.1 kmh WSW 9.2 mph14.8 kmh 30.34 in1027.4 mb - 0.00 in0.0 mm 0.00 in0.0 mm
05:35 AM 45.7°F7.6°C 39.2°F4.0°C 78% 8.1 mph WSW13.0 kmh WSW 13.8 mph22.2 kmh 30.34 in1027.4 mb - 0.00 in0.0 mm 0.00 in0.0 mm
05:40 AM 45.9°F7.7°C 39.4°F4.1°C 78% 6.9 mph W11.1 kmh W 10.4 mph16.7 kmh 30.34 in1027.4 mb - 0.00 in0.0 mm 0.00 in0.0 mm
05:45 AM 46.0°F7.8°C 39.5°F4.2°C 78% 5.8 mph W9.3 kmh W 6.9 mph11.1 kmh 30.34 in1027.4 mb - 0.00 in0.0 mm 0.00 in0.0 mm
05:50 AM 46.0°F7.8°C 39.5°F4.2°C 78% 6.9 mph WSW11.1 kmh WSW 11.5 mph18.5 kmh 30.34 in1027.4 mb - 0.00 in0.0 mm 0.00 in0.0 mm
05:55 AM 46.0°F7.8°C 39.5°F4.2°C 78% 6.9 mph WSW11.1 kmh WSW 11.5 mph18.5 kmh 30.34 in1027.4 mb - 0.00 in0.0 mm 0.00 in0.0 mm
06:00 AM 45.9°F7.7°C 39.4°F4.1°C 78% 4.6 mph W7.4 kmh W 8.1 mph13.0 kmh 30.34 in1027.4 mb - 0.00 in0.0 mm 0.00 in0.0 mm
06:05 AM 45.9°F7.7°C 39.4°F4.1°C 78% 3.5 mph WSW5.6 kmh WSW 5.8 mph9.3 kmh 30.34 in1027.4 mb - 0.00 in0.0 mm 0.00 in0.0 mm
06:10 AM 45.9°F7.7°C 39.4°F4.1°C 78% 3.5 mph W5.6 kmh W 4.6 mph7.4 kmh 30.34 in1027.4 mb - 0.00 in0.0 mm 0.00 in0.0 mm
06:15 AM 45.9°F7.7°C 39.4°F4.1°C 78% 8.1 mph WSW13.0 kmh WSW 11.5 mph18.5 kmh 30.34 in1027.4 mb - 0.00 in0.0 mm 0.00 in0.0 mm
06:20 AM 46.0°F7.8°C 39.5°F4.2°C 78% 9.2 mph WSW14.8 kmh WSW 10.4 mph16.7 kmh 30.34 in1027.4 mb - 0.00 in0.0 mm 0.00 in0.0 mm
06:25 AM 46.1°F7.8°C 39.6°F4.2°C 78% 6.9 mph WSW11.1 kmh WSW 10.4 mph16.7 kmh 30.34 in1027.4 mb - 0.00 in0.0 mm 0.00 in0.0 mm
06:30 AM 46.1°F7.8°C 39.6°F4.2°C 78% 6.9 mph WSW11.1 kmh WSW 11.5 mph18.5 kmh 30.34 in1027.4 mb - 0.00 in0.0 mm 0.00 in0.0 mm
06:35 AM 46.1°F7.8°C 39.6°F4.2°C 78% 8.1 mph WSW13.0 kmh WSW 13.8 mph22.2 kmh 30.34 in1027.4 mb - 0.00 in0.0 mm 0.00 in0.0 mm
06:40 AM 46.2°F7.9°C 39.7°F4.3°C 78% 5.8 mph WSW9.3 kmh WSW 8.1 mph13.0 kmh 30.34 in1027.4 mb - 0.00 in0.0 mm 0.00 in0.0 mm
06:45 AM 46.2°F7.9°C 39.7°F4.3°C 78% 4.6 mph WSW7.4 kmh WSW 8.1 mph13.0 kmh 30.34 in1027.4 mb - 0.00 in0.0 mm 0.00 in0.0 mm
06:50 AM 46.2°F7.9°C 39.7°F4.3°C 78% 4.6 mph W7.4 kmh W 8.1 mph13.0 kmh 30.34 in1027.4 mb - 0.00 in0.0 mm 0.00 in0.0 mm
06:55 AM 46.1°F7.8°C 39.6°F4.2°C 78% 4.6 mph W7.4 kmh W 5.8 mph9.3 kmh 30.34 in1027.4 mb - 0.00 in0.0 mm 0.00 in0.0 mm
07:00 AM 46.1°F7.8°C 39.6°F4.2°C 78% 5.8 mph W9.3 kmh W 9.2 mph14.8 kmh 30.33 in1027.1 mb - 0.00 in0.0 mm 0.00 in0.0 mm
07:05 AM 46.0°F7.8°C 39.5°F4.2°C 78% 8.1 mph WSW13.0 kmh WSW 10.4 mph16.7 kmh 30.33 in1027.1 mb - 0.00 in0.0 mm 0.00 in0.0 mm
07:10 AM 46.0°F7.8°C 39.6°F4.2°C 78% 6.9 mph W11.1 kmh W 11.5 mph18.5 kmh 30.33 in1027.1 mb - 0.00 in0.0 mm 0.00 in0.0 mm
07:15 AM 46.1°F7.8°C 39.6°F4.2°C 78% 8.1 mph WSW13.0 kmh WSW 10.4 mph16.7 kmh 30.33 in1027.1 mb - 0.00 in0.0 mm 0.00 in0.0 mm
07:20 AM 46.0°F7.8°C 39.5°F4.2°C 78% 8.1 mph WSW13.0 kmh WSW 11.5 mph18.5 kmh 30.33 in1027.1 mb - 0.00 in0.0 mm 0.00 in0.0 mm
07:25 AM 46.1°F7.8°C 39.6°F4.2°C 78% 6.9 mph WSW11.1 kmh WSW 10.4 mph16.7 kmh 30.33 in1027.1 mb - 0.00 in0.0 mm 0.00 in0.0 mm
07:30 AM 46.1°F7.8°C 39.6°F4.2°C 78% 5.8 mph WSW9.3 kmh WSW 11.5 mph18.5 kmh 30.33 in1027.1 mb - 0.00 in0.0 mm 0.00 in0.0 mm
07:35 AM 46.3°F7.9°C 39.8°F4.3°C 78% 5.8 mph WSW9.3 kmh WSW 9.2 mph14.8 kmh 30.33 in1027.1 mb - 0.00 in0.0 mm 0.00 in0.0 mm
07:40 AM 46.4°F8.0°C 39.9°F4.4°C 78% 4.6 mph W7.4 kmh W 6.9 mph11.1 kmh 30.33 in1027.1 mb - 0.00 in0.0 mm 0.00 in0.0 mm
07:45 AM 46.5°F8.1°C 40.0°F4.4°C 78% 4.6 mph SW7.4 kmh SW 6.9 mph11.1 kmh 30.33 in1027.1 mb - 0.00 in0.0 mm 0.00 in0.0 mm
07:50 AM 46.5°F8.1°C 40.0°F4.4°C 78% 3.5 mph W5.6 kmh W 4.6 mph7.4 kmh 30.33 in1027.1 mb - 0.00 in0.0 mm 0.00 in0.0 mm
07:55 AM 46.5°F8.1°C 40.0°F4.4°C 78% 3.5 mph W5.6 kmh W 3.5 mph5.6 kmh 30.33 in1027.1 mb - 0.00 in0.0 mm 0.00 in0.0 mm
08:00 AM 46.4°F8.0°C 40.0°F4.4°C 78% 4.6 mph WSW7.4 kmh WSW 10.4 mph16.7 kmh 30.32 in1026.8 mb - 0.00 in0.0 mm 0.00 in0.0 mm
08:05 AM 46.4°F8.0°C 39.9°F4.4°C 78% 6.9 mph WSW11.1 kmh WSW 10.4 mph16.7 kmh 30.32 in1026.8 mb - 0.00 in0.0 mm 0.00 in0.0 mm
08:10 AM 46.4°F8.0°C 39.9°F4.4°C 78% 3.5 mph W5.6 kmh W 6.9 mph11.1 kmh 30.32 in1026.8 mb - 0.00 in0.0 mm 0.00 in0.0 mm
08:15 AM 46.4°F8.0°C 39.9°F4.4°C 78% 2.3 mph WSW3.7 kmh WSW 3.5 mph5.6 kmh 30.32 in1026.8 mb - 0.00 in0.0 mm 0.00 in0.0 mm
08:20 AM 46.3°F7.9°C 39.8°F4.3°C 78% 1.2 mph W1.9 kmh W 2.3 mph3.7 kmh 30.32 in1026.8 mb - 0.00 in0.0 mm 0.00 in0.0 mm
08:25 AM 46.3°F7.9°C 39.8°F4.3°C 78% 1.2 mph WSW1.9 kmh WSW 4.6 mph7.4 kmh 30.32 in1026.8 mb - 0.00 in0.0 mm 0.00 in0.0 mm
08:30 AM 46.3°F7.9°C 39.8°F4.3°C 78% 1.2 mph W1.9 kmh W 1.2 mph1.9 kmh 30.32 in1026.8 mb - 0.00 in0.0 mm 0.00 in0.0 mm
08:35 AM 46.2°F7.9°C 39.7°F4.3°C 78% 1.2 mph W1.9 kmh W 2.3 mph3.7 kmh 30.31 in1026.4 mb - 0.00 in0.0 mm 0.00 in0.0 mm
08:40 AM 46.4°F8.0°C 39.9°F4.4°C 78% 3.5 mph WSW5.6 kmh WSW 11.5 mph18.5 kmh 30.32 in1026.8 mb - 0.00 in0.0 mm 0.00 in0.0 mm
08:45 AM 46.7°F8.2°C 40.2°F4.6°C 78% 11.5 mph WSW18.5 kmh WSW 16.1 mph25.9 kmh 30.31 in1026.4 mb - 0.00 in0.0 mm 0.00 in0.0 mm
08:50 AM 46.8°F8.2°C 40.3°F4.6°C 78% 5.8 mph WSW9.3 kmh WSW 9.2 mph14.8 kmh 30.31 in1026.4 mb - 0.00 in0.0 mm 0.00 in0.0 mm
08:55 AM 46.8°F8.2°C 40.3°F4.6°C 78% 5.8 mph W9.3 kmh W 9.2 mph14.8 kmh 30.32 in1026.8 mb - 0.00 in0.0 mm 0.00 in0.0 mm
09:00 AM 46.8°F8.2°C 40.3°F4.6°C 78% 8.1 mph WSW13.0 kmh WSW 12.7 mph20.4 kmh 30.31 in1026.4 mb - 0.00 in0.0 mm 0.00 in0.0 mm
09:05 AM 46.7°F8.2°C 40.2°F4.6°C 78% 8.1 mph WSW13.0 kmh WSW 12.7 mph20.4 kmh 30.31 in1026.4 mb - 0.00 in0.0 mm 0.00 in0.0 mm
09:10 AM 46.7°F8.2°C 40.2°F4.6°C 78% 8.1 mph W13.0 kmh W 11.5 mph18.5 kmh 30.31 in1026.4 mb - 0.00 in0.0 mm 0.00 in0.0 mm
09:15 AM 46.6°F8.1°C 40.1°F4.5°C 78% 9.2 mph WSW14.8 kmh WSW 13.8 mph22.2 kmh 30.31 in1026.4 mb - 0.00 in0.0 mm 0.00 in0.0 mm
09:20 AM 46.7°F8.2°C 40.2°F4.6°C 78% 11.5 mph W18.5 kmh W 12.7 mph20.4 kmh 30.31 in1026.4 mb - 0.00 in0.0 mm 0.00 in0.0 mm
09:25 AM 46.7°F8.2°C 40.2°F4.6°C 78% 6.9 mph WSW11.1 kmh WSW 10.4 mph16.7 kmh 30.31 in1026.4 mb - 0.00 in0.0 mm 0.00 in0.0 mm
09:30 AM 46.7°F8.2°C 40.2°F4.6°C 78% 8.1 mph WSW13.0 kmh WSW 11.5 mph18.5 kmh 30.31 in1026.4 mb - 0.00 in0.0 mm 0.00 in0.0 mm
09:35 AM 46.6°F8.1°C 39.8°F4.3°C 77% 8.1 mph W13.0 kmh W 15.0 mph24.1 kmh 30.31 in1026.4 mb - 0.00 in0.0 mm 0.00 in0.0 mm
09:40 AM 46.6°F8.1°C 39.7°F4.3°C 77% 6.9 mph W11.1 kmh W 11.5 mph18.5 kmh 30.31 in1026.4 mb - 0.00 in0.0 mm 0.00 in0.0 mm
09:45 AM 46.5°F8.1°C 39.7°F4.3°C 77% 8.1 mph W13.0 kmh W 11.5 mph18.5 kmh 30.31 in1026.4 mb - 0.00 in0.0 mm 0.00 in0.0 mm
09:50 AM 46.4°F8.0°C 39.6°F4.2°C 77% 9.2 mph WSW14.8 kmh WSW 12.7 mph20.4 kmh 30.31 in1026.4 mb - 0.00 in0.0 mm 0.00 in0.0 mm
09:55 AM 46.4°F8.0°C 39.6°F4.2°C 77% 9.2 mph WSW14.8 kmh WSW 12.7 mph20.4 kmh 30.30 in1026.1 mb - 0.00 in0.0 mm 0.00 in0.0 mm
10:00 AM 46.4°F8.0°C 39.6°F4.2°C 77% 10.4 mph WSW16.7 kmh WSW 15.0 mph24.1 kmh 30.30 in1026.1 mb - 0.00 in0.0 mm 0.00 in0.0 mm
10:05 AM 46.5°F8.1°C 39.7°F4.3°C 77% 8.1 mph WSW13.0 kmh WSW 16.1 mph25.9 kmh 30.31 in1026.4 mb - 0.00 in0.0 mm 0.00 in0.0 mm
10:10 AM 46.5°F8.1°C 39.7°F4.3°C 77% 10.4 mph WSW16.7 kmh WSW 17.3 mph27.8 kmh 30.31 in1026.4 mb - 0.00 in0.0 mm 0.00 in0.0 mm
10:15 AM 46.9°F8.3°C 40.0°F4.4°C 77% 10.4 mph WSW16.7 kmh WSW 13.8 mph22.2 kmh 30.30 in1026.1 mb - 0.00 in0.0 mm 0.00 in0.0 mm
10:20 AM 47.2°F8.4°C 40.4°F4.7°C 77% 11.5 mph WSW18.5 kmh WSW 19.6 mph31.5 kmh 30.30 in1026.1 mb - 0.00 in0.0 mm 0.00 in0.0 mm
10:25 AM 47.4°F8.6°C 40.6°F4.8°C 77% 12.7 mph WSW20.4 kmh WSW 17.3 mph27.8 kmh 30.30 in1026.1 mb - 0.00 in0.0 mm 0.00 in0.0 mm
10:30 AM 47.3°F8.5°C 40.4°F4.7°C 77% 13.8 mph WSW22.2 kmh WSW 18.4 mph29.6 kmh 30.30 in1026.1 mb - 0.00 in0.0 mm 0.00 in0.0 mm
10:35 AM 47.1°F8.4°C 40.3°F4.6°C 77% 13.8 mph WSW22.2 kmh WSW 19.6 mph31.5 kmh 30.30 in1026.1 mb - 0.00 in0.0 mm 0.00 in0.0 mm
10:40 AM 47.1°F8.4°C 40.3°F4.6°C 77% 12.7 mph WSW20.4 kmh WSW 18.4 mph29.6 kmh 30.30 in1026.1 mb - 0.00 in0.0 mm 0.00 in0.0 mm
10:45 AM 47.1°F8.4°C 40.2°F4.6°C 77% 13.8 mph WSW22.2 kmh WSW 19.6 mph31.5 kmh 30.30 in1026.1 mb - 0.00 in0.0 mm 0.00 in0.0 mm
10:50 AM 47.1°F8.4°C 40.3°F4.6°C 77% 15.0 mph W24.1 kmh W 19.6 mph31.5 kmh 30.30 in1026.1 mb - 0.00 in0.0 mm 0.00 in0.0 mm
10:55 AM 47.1°F8.4°C 40.3°F4.6°C 77% 10.4 mph WSW16.7 kmh WSW 17.3 mph27.8 kmh 30.31 in1026.4 mb - 0.00 in0.0 mm 0.00 in0.0 mm
11:00 AM 47.1°F8.4°C 40.6°F4.8°C 78% 10.4 mph WSW16.7 kmh WSW 18.4 mph29.6 kmh 30.31 in1026.4 mb - 0.00 in0.0 mm 0.00 in0.0 mm
11:05 AM 47.2°F8.4°C 40.4°F4.7°C 77% 15.0 mph WSW24.1 kmh WSW 26.5 mph42.6 kmh 30.30 in1026.1 mb - 0.00 in0.0 mm 0.00 in0.0 mm
11:10 AM 47.4°F8.6°C 40.5°F4.7°C 77% 18.4 mph WSW29.6 kmh WSW 26.5 mph42.6 kmh 30.30 in1026.1 mb - 0.00 in0.0 mm 0.00 in0.0 mm
11:15 AM 47.5°F8.6°C 40.6°F4.8°C 77% 12.7 mph WSW20.4 kmh WSW 23.0 mph37.0 kmh 30.30 in1026.1 mb - 0.00 in0.0 mm 0.00 in0.0 mm
11:20 AM 47.5°F8.6°C 40.6°F4.8°C 77% 13.8 mph SW22.2 kmh SW 16.1 mph25.9 kmh 30.30 in1026.1 mb - 0.00 in0.0 mm 0.00 in0.0 mm
11:25 AM 47.5°F8.6°C 40.7°F4.8°C 77% 10.4 mph WSW16.7 kmh WSW 16.1 mph25.9 kmh 30.30 in1026.1 mb - 0.00 in0.0 mm 0.00 in0.0 mm
11:30 AM 47.5°F8.6°C 40.6°F4.8°C 77% 10.4 mph WSW16.7 kmh WSW 16.1 mph25.9 kmh 30.30 in1026.1 mb - 0.00 in0.0 mm 0.00 in0.0 mm
11:35 AM 47.5°F8.6°C 40.6°F4.8°C 77% 11.5 mph WSW18.5 kmh WSW 16.1 mph25.9 kmh 30.30 in1026.1 mb - 0.00 in0.0 mm 0.00 in0.0 mm
11:40 AM 47.5°F8.6°C 40.6°F4.8°C 77% 13.8 mph WSW22.2 kmh WSW 18.4 mph29.6 kmh 30.30 in1026.1 mb - 0.00 in0.0 mm 0.00 in0.0 mm
11:45 AM 47.4°F8.6°C 40.6°F4.8°C 77% 12.7 mph WSW20.4 kmh WSW 18.4 mph29.6 kmh 30.30 in1026.1 mb - 0.00 in0.0 mm 0.00 in0.0 mm
11:50 AM 47.4°F8.6°C 40.5°F4.7°C 77% 16.1 mph WSW25.9 kmh WSW 19.6 mph31.5 kmh 30.30 in1026.1 mb - 0.00 in0.0 mm 0.00 in0.0 mm
11:55 AM 47.4°F8.6°C 40.5°F4.7°C 77% 12.7 mph WSW20.4 kmh WSW 16.1 mph25.9 kmh 30.30 in1026.1 mb - 0.00 in0.0 mm 0.00 in0.0 mm
12:00 PM 47.3°F8.5°C 40.5°F4.7°C 77% 11.5 mph WSW18.5 kmh WSW 18.4 mph29.6 kmh 30.30 in1026.1 mb - 0.00 in0.0 mm 0.00 in0.0 mm
12:05 PM 47.4°F8.6°C 40.6°F4.8°C 77% 12.7 mph WSW20.4 kmh WSW 15.0 mph24.1 kmh 30.30 in1026.1 mb - 0.00 in0.0 mm 0.00 in0.0 mm
12:10 PM 47.4°F8.6°C 40.6°F4.8°C 77% 13.8 mph WSW22.2 kmh WSW 21.9 mph35.2 kmh 30.30 in1026.1 mb - 0.00 in0.0 mm 0.00 in0.0 mm
12:15 PM 47.4°F8.6°C 40.6°F4.8°C 77% 12.7 mph W20.4 kmh W 17.3 mph27.8 kmh 30.30 in1026.1 mb - 0.00 in0.0 mm 0.00 in0.0 mm
12:20 PM 47.4°F8.6°C 40.6°F4.8°C 77% 10.4 mph WSW16.7 kmh WSW 15.0 mph24.1 kmh 30.30 in1026.1 mb - 0.00 in0.0 mm 0.00 in0.0 mm
12:25 PM 47.4°F8.6°C 40.6°F4.8°C 77% 11.5 mph WSW18.5 kmh WSW 15.0 mph24.1 kmh 30.30 in1026.1 mb - 0.00 in0.0 mm 0.00 in0.0 mm
12:30 PM 47.5°F8.6°C 40.6°F4.8°C 77% 12.7 mph WSW20.4 kmh WSW 13.8 mph22.2 kmh 30.29 in1025.7 mb - 0.00 in0.0 mm 0.00 in0.0 mm
12:35 PM 47.6°F8.7°C 40.7°F4.8°C 77% 10.4 mph W16.7 kmh W 17.3 mph27.8 kmh 30.29 in1025.7 mb - 0.00 in0.0 mm 0.00 in0.0 mm
12:40 PM 47.7°F8.7°C 40.8°F4.9°C 77% 8.1 mph W13.0 kmh W 13.8 mph22.2 kmh 30.29 in1025.7 mb - 0.00 in0.0 mm 0.00 in0.0 mm
12:45 PM 47.7°F8.7°C 40.9°F4.9°C 77% 10.4 mph WSW16.7 kmh WSW 17.3 mph27.8 kmh 30.29 in1025.7 mb - 0.00 in0.0 mm 0.00 in0.0 mm
12:50 PM 47.8°F8.8°C 40.9°F4.9°C 77% 10.4 mph WSW16.7 kmh WSW 18.4 mph29.6 kmh 30.29 in1025.7 mb - 0.00 in0.0 mm 0.00 in0.0 mm
12:55 PM 47.8°F8.8°C 40.9°F4.9°C 77% 11.5 mph WSW18.5 kmh WSW 17.3 mph27.8 kmh 30.29 in1025.7 mb - 0.00 in0.0 mm 0.00 in0.0 mm
01:00 PM 47.9°F8.8°C 41.0°F5.0°C 77% 10.4 mph WSW16.7 kmh WSW 13.8 mph22.2 kmh 30.29 in1025.7 mb - 0.00 in0.0 mm 0.00 in0.0 mm
01:05 PM 47.8°F8.8°C 40.9°F4.9°C 77% 11.5 mph WSW18.5 kmh WSW 19.6 mph31.5 kmh 30.28 in1025.4 mb - 0.00 in0.0 mm 0.00 in0.0 mm
01:10 PM 47.8°F8.8°C 40.9°F4.9°C 77% 11.5 mph WSW18.5 kmh WSW 18.4 mph29.6 kmh 30.28 in1025.4 mb - 0.00 in0.0 mm 0.00 in0.0 mm
01:15 PM 47.8°F8.8°C 40.9°F4.9°C 77% 13.8 mph WSW22.2 kmh WSW 15.0 mph24.1 kmh 30.28 in1025.4 mb - 0.00 in0.0 mm 0.00 in0.0 mm
01:20 PM 47.8°F8.8°C 40.9°F4.9°C 77% 10.4 mph WSW16.7 kmh WSW 18.4 mph29.6 kmh 30.27 in1025.1 mb - 0.00 in0.0 mm 0.00 in0.0 mm
01:25 PM 47.8°F8.8°C 40.9°F4.9°C 77% 11.5 mph WSW18.5 kmh WSW 17.3 mph27.8 kmh 30.27 in1025.1 mb - 0.00 in0.0 mm 0.00 in0.0 mm
01:30 PM 47.9°F8.8°C 41.0°F5.0°C 77% 11.5 mph WSW18.5 kmh WSW 13.8 mph22.2 kmh 30.27 in1025.1 mb - 0.00 in0.0 mm 0.00 in0.0 mm
01:35 PM 47.9°F8.8°C 40.7°F4.8°C 76% 12.7 mph WSW20.4 kmh WSW 19.6 mph31.5 kmh 30.27 in1025.1 mb - 0.00 in0.0 mm 0.00 in0.0 mm
01:40 PM 47.9°F8.8°C 41.0°F5.0°C 77% 10.4 mph WSW16.7 kmh WSW 13.8 mph22.2 kmh 30.27 in1025.1 mb - 0.00 in0.0 mm 0.00 in0.0 mm
01:45 PM 47.9°F8.8°C 40.7°F4.8°C 76% 9.2 mph WSW14.8 kmh WSW 11.5 mph18.5 kmh 30.27 in1025.1 mb - 0.00 in0.0 mm 0.00 in0.0 mm
01:50 PM 47.8°F8.8°C 40.9°F4.9°C 77% 8.1 mph WSW13.0 kmh WSW 13.8 mph22.2 kmh 30.27 in1025.1 mb - 0.00 in0.0 mm 0.00 in0.0 mm
01:55 PM 47.9°F8.8°C 40.7°F4.8°C 76% 12.7 mph WSW20.4 kmh WSW 16.1 mph25.9 kmh 30.26 in1024.7 mb - 0.00 in0.0 mm 0.00 in0.0 mm
02:00 PM 48.1°F8.9°C 41.2°F5.1°C 77% 10.4 mph W16.7 kmh W 12.7 mph20.4 kmh 30.26 in1024.7 mb - 0.00 in0.0 mm 0.00 in0.0 mm
02:05 PM 48.1°F8.9°C 41.2°F5.1°C 77% 6.9 mph W11.1 kmh W 9.2 mph14.8 kmh 30.26 in1024.7 mb - 0.00 in0.0 mm 0.00 in0.0 mm
02:10 PM 48.1°F8.9°C 41.2°F5.1°C 77% 10.4 mph W16.7 kmh W 13.8 mph22.2 kmh 30.26 in1024.7 mb - 0.00 in0.0 mm 0.00 in0.0 mm
02:15 PM 48.1°F8.9°C 41.2°F5.1°C 77% 10.4 mph WSW16.7 kmh WSW 15.0 mph24.1 kmh 30.26 in1024.7 mb - 0.00 in0.0 mm 0.00 in0.0 mm
02:20 PM 48.1°F8.9°C 41.2°F5.1°C 77% 6.9 mph WSW11.1 kmh WSW 11.5 mph18.5 kmh 30.26 in1024.7 mb - 0.00 in0.0 mm 0.00 in0.0 mm
02:25 PM 47.9°F8.8°C 41.0°F5.0°C 77% 8.1 mph WSW13.0 kmh WSW 11.5 mph18.5 kmh 30.26 in1024.7 mb - 0.00 in0.0 mm 0.00 in0.0 mm
02:30 PM 47.8°F8.8°C 41.0°F5.0°C 77% 5.8 mph WSW9.3 kmh WSW 8.1 mph13.0 kmh 30.26 in1024.7 mb - 0.00 in0.0 mm 0.00 in0.0 mm
02:35 PM 47.8°F8.8°C 40.9°F4.9°C 77% 6.9 mph W11.1 kmh W 9.2 mph14.8 kmh 30.26 in1024.7 mb - 0.00 in0.0 mm 0.00 in0.0 mm
02:40 PM 47.7°F8.7°C 40.8°F4.9°C 77% 3.5 mph WSW5.6 kmh WSW 4.6 mph7.4 kmh 30.26 in1024.7 mb - 0.00 in0.0 mm 0.00 in0.0 mm
02:45 PM 47.7°F8.7°C 40.8°F4.9°C 77% 11.5 mph SW18.5 kmh SW 20.7 mph33.3 kmh 30.26 in1024.7 mb - 0.00 in0.0 mm 0.00 in0.0 mm
02:50 PM 47.7°F8.7°C 40.8°F4.9°C 77% 4.6 mph WSW7.4 kmh WSW 10.4 mph16.7 kmh 30.25 in1024.4 mb - 0.00 in0.0 mm 0.00 in0.0 mm
02:55 PM 47.7°F8.7°C 40.8°F4.9°C 77% 9.2 mph WSW14.8 kmh WSW 17.3 mph27.8 kmh 30.25 in1024.4 mb - 0.00 in0.0 mm 0.00 in0.0 mm
03:00 PM 47.6°F8.7°C 40.7°F4.8°C 77% 6.9 mph WSW11.1 kmh WSW 10.4 mph16.7 kmh 30.25 in1024.4 mb - 0.00 in0.0 mm 0.00 in0.0 mm
03:05 PM 47.6°F8.7°C 40.7°F4.8°C 77% 4.6 mph W7.4 kmh W 6.9 mph11.1 kmh 30.25 in1024.4 mb - 0.00 in0.0 mm 0.00 in0.0 mm
03:10 PM 47.6°F8.7°C 40.7°F4.8°C 77% 5.8 mph WSW9.3 kmh WSW 8.1 mph13.0 kmh 30.25 in1024.4 mb - 0.00 in0.0 mm 0.00 in0.0 mm
03:15 PM 47.5°F8.6°C 40.6°F4.8°C 77% 5.8 mph WSW9.3 kmh WSW 10.4 mph16.7 kmh 30.25 in1024.4 mb - 0.00 in0.0 mm 0.00 in0.0 mm
03:20 PM 47.4°F8.6°C 40.6°F4.8°C 77% 4.6 mph WSW7.4 kmh WSW 9.2 mph14.8 kmh 30.25 in1024.4 mb - 0.00 in0.0 mm 0.00 in0.0 mm
03:25 PM 47.3°F8.5°C 40.5°F4.7°C 77% 8.1 mph WSW13.0 kmh WSW 15.0 mph24.1 kmh 30.25 in1024.4 mb - 0.00 in0.0 mm 0.00 in0.0 mm
03:30 PM 47.3°F8.5°C 40.5°F4.7°C 77% 11.5 mph WSW18.5 kmh WSW 13.8 mph22.2 kmh 30.25 in1024.4 mb - 0.00 in0.0 mm 0.00 in0.0 mm
03:35 PM 47.3°F8.5°C 40.5°F4.7°C 77% 10.4 mph WSW16.7 kmh WSW 12.7 mph20.4 kmh 30.25 in1024.4 mb - 0.00 in0.0 mm 0.00 in0.0 mm
03:40 PM 47.2°F8.4°C 40.4°F4.7°C 77% 9.2 mph WSW14.8 kmh WSW 13.8 mph22.2 kmh 30.25 in1024.4 mb - 0.00 in0.0 mm 0.00 in0.0 mm
03:45 PM 47.2°F8.4°C 40.4°F4.7°C 77% 9.2 mph SW14.8 kmh SW 11.5 mph18.5 kmh 30.25 in1024.4 mb - 0.00 in0.0 mm 0.00 in0.0 mm
03:50 PM 47.1°F8.4°C 40.2°F4.6°C 77% 8.1 mph WSW13.0 kmh WSW 11.5 mph18.5 kmh 30.24 in1024.0 mb - 0.00 in0.0 mm 0.00 in0.0 mm
03:55 PM 47.0°F8.3°C 40.2°F4.6°C 77% 6.9 mph WSW11.1 kmh WSW 10.4 mph16.7 kmh 30.25 in1024.4 mb - 0.00 in0.0 mm 0.00 in0.0 mm
04:00 PM 47.0°F8.3°C 40.2°F4.6°C 77% 10.4 mph WSW16.7 kmh WSW 12.7 mph20.4 kmh 30.25 in1024.4 mb - 0.00 in0.0 mm 0.00 in0.0 mm
04:05 PM 46.9°F8.3°C 40.1°F4.5°C 77% 5.8 mph SW9.3 kmh SW 9.2 mph14.8 kmh 30.25 in1024.4 mb - 0.00 in0.0 mm 0.00 in0.0 mm
04:10 PM 46.9°F8.3°C 40.0°F4.4°C 77% 8.1 mph WSW13.0 kmh WSW 10.4 mph16.7 kmh 30.25 in1024.4 mb - 0.00 in0.0 mm 0.00 in0.0 mm
04:15 PM 46.8°F8.2°C 40.0°F4.4°C 77% 10.4 mph WSW16.7 kmh WSW 15.0 mph24.1 kmh 30.24 in1024.0 mb - 0.00 in0.0 mm 0.00 in0.0 mm
04:20 PM 46.9°F8.3°C 40.1°F4.5°C 77% 9.2 mph WSW14.8 kmh WSW 13.8 mph22.2 kmh 30.24 in1024.0 mb - 0.00 in0.0 mm 0.00 in0.0 mm
04:25 PM 46.9°F8.3°C 40.1°F4.5°C 77% 9.2 mph WSW14.8 kmh WSW 12.7 mph20.4 kmh 30.24 in1024.0 mb - 0.00 in0.0 mm 0.00 in0.0 mm
04:30 PM 46.9°F8.3°C 40.1°F4.5°C 77% 9.2 mph SW14.8 kmh SW 15.0 mph24.1 kmh 30.24 in1024.0 mb - 0.00 in0.0 mm 0.00 in0.0 mm
04:35 PM 46.9°F8.3°C 40.1°F4.5°C 77% 10.4 mph WSW16.7 kmh WSW 15.0 mph24.1 kmh 30.23 in1023.7 mb - 0.00 in0.0 mm 0.00 in0.0 mm
04:40 PM 46.9°F8.3°C 40.1°F4.5°C 77% 11.5 mph WSW18.5 kmh WSW 15.0 mph24.1 kmh 30.23 in1023.7 mb - 0.00 in0.0 mm 0.00 in0.0 mm
04:45 PM 46.9°F8.3°C 40.1°F4.5°C 77% 12.7 mph WSW20.4 kmh WSW 13.8 mph22.2 kmh 30.23 in1023.7 mb - 0.00 in0.0 mm 0.00 in0.0 mm
04:50 PM 46.9°F8.3°C 40.1°F4.5°C 77% 9.2 mph WSW14.8 kmh WSW 11.5 mph18.5 kmh 30.23 in1023.7 mb - 0.00 in0.0 mm 0.00 in0.0 mm
04:55 PM 46.9°F8.3°C 40.1°F4.5°C 77% 12.7 mph WSW20.4 kmh WSW 17.3 mph27.8 kmh 30.23 in1023.7 mb - 0.00 in0.0 mm 0.00 in0.0 mm
05:00 PM 46.9°F8.3°C 40.1°F4.5°C 77% 9.2 mph WSW14.8 kmh WSW 19.6 mph31.5 kmh 30.23 in1023.7 mb - 0.00 in0.0 mm 0.00 in0.0 mm
05:05 PM 47.0°F8.3°C 40.2°F4.6°C 77% 11.5 mph WSW18.5 kmh WSW 15.0 mph24.1 kmh 30.23 in1023.7 mb - 0.00 in0.0 mm 0.00 in0.0 mm
05:10 PM 47.1°F8.4°C 40.3°F4.6°C 77% 8.1 mph WSW13.0 kmh WSW 11.5 mph18.5 kmh 30.23 in1023.7 mb - 0.00 in0.0 mm 0.00 in0.0 mm
05:15 PM 47.0°F8.3°C 40.2°F4.6°C 77% 9.2 mph SW14.8 kmh SW 13.8 mph22.2 kmh 30.23 in1023.7 mb - 0.00 in0.0 mm 0.00 in0.0 mm
05:20 PM 47.1°F8.4°C 40.3°F4.6°C 77% 11.5 mph SW18.5 kmh SW 16.1 mph25.9 kmh 30.23 in1023.7 mb - 0.00 in0.0 mm 0.00 in0.0 mm
05:25 PM 47.1°F8.4°C 40.3°F4.6°C 77% 8.1 mph SW13.0 kmh SW 11.5 mph18.5 kmh 30.23 in1023.7 mb - 0.00 in0.0 mm 0.00 in0.0 mm
05:30 PM 47.1°F8.4°C 40.3°F4.6°C 77% 10.4 mph WSW16.7 kmh WSW 13.8 mph22.2 kmh 30.23 in1023.7 mb - 0.00 in0.0 mm 0.00 in0.0 mm
05:35 PM 47.2°F8.4°C 40.4°F4.7°C 77% 10.4 mph WSW16.7 kmh WSW 16.1 mph25.9 kmh 30.23 in1023.7 mb - 0.00 in0.0 mm 0.00 in0.0 mm
05:40 PM 47.2°F8.4°C 40.4°F4.7°C 77% 9.2 mph WSW14.8 kmh WSW 18.4 mph29.6 kmh 30.23 in1023.7 mb - 0.00 in0.0 mm 0.00 in0.0 mm
05:45 PM 47.2°F8.4°C 40.4°F4.7°C 77% 8.1 mph WSW13.0 kmh WSW 11.5 mph18.5 kmh 30.22 in1023.4 mb - 0.00 in0.0 mm 0.00 in0.0 mm
05:50 PM 47.2°F8.4°C 40.4°F4.7°C 77% 8.1 mph WSW13.0 kmh WSW 11.5 mph18.5 kmh 30.22 in1023.4 mb - 0.00 in0.0 mm 0.00 in0.0 mm
05:55 PM 47.2°F8.4°C 40.4°F4.7°C 77% 6.9 mph WSW11.1 kmh WSW 11.5 mph18.5 kmh 30.22 in1023.4 mb - 0.00 in0.0 mm 0.00 in0.0 mm
06:00 PM 47.1°F8.4°C 40.3°F4.6°C 77% 3.5 mph WSW5.6 kmh WSW 5.8 mph9.3 kmh 30.22 in1023.4 mb - 0.00 in0.0 mm 0.00 in0.0 mm
06:05 PM 47.1°F8.4°C 40.2°F4.6°C 77% 5.8 mph WSW9.3 kmh WSW 11.5 mph18.5 kmh 30.22 in1023.4 mb - 0.00 in0.0 mm 0.00 in0.0 mm
06:10 PM 47.0°F8.3°C 40.2°F4.6°C 77% 4.6 mph WSW7.4 kmh WSW 10.4 mph16.7 kmh 30.22 in1023.4 mb - 0.00 in0.0 mm 0.00 in0.0 mm
06:15 PM 47.0°F8.3°C 40.2°F4.6°C 77% 10.4 mph WSW16.7 kmh WSW 19.6 mph31.5 kmh 30.21 in1023.0 mb - 0.00 in0.0 mm 0.00 in0.0 mm
06:20 PM 47.1°F8.4°C 40.3°F4.6°C 77% 6.9 mph SW11.1 kmh SW 9.2 mph14.8 kmh 30.21 in1023.0 mb - 0.00 in0.0 mm 0.00 in0.0 mm
06:25 PM 47.2°F8.4°C 40.4°F4.7°C 77% 12.7 mph WSW20.4 kmh WSW 17.3 mph27.8 kmh 30.21 in1023.0 mb - 0.00 in0.0 mm 0.00 in0.0 mm
06:30 PM 47.3°F8.5°C 40.5°F4.7°C 77% 10.4 mph SW16.7 kmh SW 17.3 mph27.8 kmh 30.21 in1023.0 mb - 0.00 in0.0 mm 0.00 in0.0 mm
06:35 PM 47.4°F8.6°C 40.6°F4.8°C 77% 10.4 mph SW16.7 kmh SW 13.8 mph22.2 kmh 30.21 in1023.0 mb - 0.00 in0.0 mm 0.00 in0.0 mm
06:40 PM 47.4°F8.6°C 40.6°F4.8°C 77% 8.1 mph WSW13.0 kmh WSW 11.5 mph18.5 kmh 30.21 in1023.0 mb - 0.00 in0.0 mm 0.00 in0.0 mm
06:45 PM 47.4°F8.6°C 40.6°F4.8°C 77% 10.4 mph WSW16.7 kmh WSW 18.4 mph29.6 kmh 30.21 in1023.0 mb - 0.00 in0.0 mm 0.00 in0.0 mm
06:50 PM 47.5°F8.6°C 40.6°F4.8°C 77% 9.2 mph WSW14.8 kmh WSW 13.8 mph22.2 kmh 30.21 in1023.0 mb - 0.00 in0.0 mm 0.00 in0.0 mm
06:55 PM 47.5°F8.6°C 40.6°F4.8°C 77% 11.5 mph WSW18.5 kmh WSW 16.1 mph25.9 kmh 30.21 in1023.0 mb - 0.00 in0.0 mm 0.00 in0.0 mm
07:00 PM 47.5°F8.6°C 40.6°F4.8°C 77% 8.1 mph WSW13.0 kmh WSW 15.0 mph24.1 kmh 30.20 in1022.7 mb - 0.00 in0.0 mm 0.00 in0.0 mm
07:05 PM 47.5°F8.6°C 40.6°F4.8°C 77% 8.1 mph SW13.0 kmh SW 11.5 mph18.5 kmh 30.20 in1022.7 mb - 0.00 in0.0 mm 0.00 in0.0 mm
07:10 PM 47.5°F8.6°C 40.6°F4.8°C 77% 11.5 mph WSW18.5 kmh WSW 16.1 mph25.9 kmh 30.20 in1022.7 mb - 0.00 in0.0 mm 0.00 in0.0 mm
07:15 PM 47.5°F8.6°C 40.6°F4.8°C 77% 8.1 mph WSW13.0 kmh WSW 12.7 mph20.4 kmh 30.20 in1022.7 mb - 0.00 in0.0 mm 0.00 in0.0 mm
07:20 PM 47.5°F8.6°C 40.6°F4.8°C 77% 13.8 mph WSW22.2 kmh WSW 19.6 mph31.5 kmh 30.20 in1022.7 mb - 0.00 in0.0 mm 0.00 in0.0 mm
07:25 PM 47.5°F8.6°C 40.7°F4.8°C 77% 10.4 mph WSW16.7 kmh WSW 17.3 mph27.8 kmh 30.20 in1022.7 mb - 0.00 in0.0 mm 0.00 in0.0 mm
07:30 PM 47.5°F8.6°C 40.6°F4.8°C 77% 11.5 mph WSW18.5 kmh WSW 15.0 mph24.1 kmh 30.20 in1022.7 mb - 0.00 in0.0 mm 0.00 in0.0 mm
07:35 PM 47.5°F8.6°C 40.6°F4.8°C 77% 9.2 mph WSW14.8 kmh WSW 11.5 mph18.5 kmh 30.20 in1022.7 mb - 0.00 in0.0 mm 0.00 in0.0 mm
07:40 PM 47.5°F8.6°C 40.6°F4.8°C 77% 11.5 mph WSW18.5 kmh WSW 13.8 mph22.2 kmh 30.20 in1022.7 mb - 0.00 in0.0 mm 0.00 in0.0 mm
07:45 PM 47.5°F8.6°C 40.6°F4.8°C 77% 11.5 mph WSW18.5 kmh WSW 18.4 mph29.6 kmh 30.20 in1022.7 mb - 0.00 in0.0 mm 0.00 in0.0 mm
07:50 PM 47.5°F8.6°C 40.6°F4.8°C 77% 8.1 mph WSW13.0 kmh WSW 11.5 mph18.5 kmh 30.20 in1022.7 mb - 0.00 in0.0 mm 0.00 in0.0 mm
07:55 PM 47.4°F8.6°C 40.6°F4.8°C 77% 10.4 mph SW16.7 kmh SW 13.8 mph22.2 kmh 30.20 in1022.7 mb - 0.00 in0.0 mm 0.00 in0.0 mm
08:00 PM 47.5°F8.6°C 40.6°F4.8°C 77% 10.4 mph WSW16.7 kmh WSW 13.8 mph22.2 kmh 30.20 in1022.7 mb - 0.00 in0.0 mm 0.00 in0.0 mm
08:05 PM 47.6°F8.7°C 40.7°F4.8°C 77% 10.4 mph WSW16.7 kmh WSW 12.7 mph20.4 kmh 30.20 in1022.7 mb - 0.00 in0.0 mm 0.00 in0.0 mm
08:10 PM 47.5°F8.6°C 40.7°F4.8°C 77% 10.4 mph WSW16.7 kmh WSW 17.3 mph27.8 kmh 30.20 in1022.7 mb - 0.00 in0.0 mm 0.00 in0.0 mm
08:15 PM 47.5°F8.6°C 40.6°F4.8°C 77% 10.4 mph WSW16.7 kmh WSW 16.1 mph25.9 kmh 30.19 in1022.4 mb - 0.00 in0.0 mm 0.00 in0.0 mm
08:20 PM 47.6°F8.7°C 40.7°F4.8°C 77% 12.7 mph WSW20.4 kmh WSW 19.6 mph31.5 kmh 30.19 in1022.4 mb - 0.00 in0.0 mm 0.00 in0.0 mm
08:25 PM 47.6°F8.7°C 40.7°F4.8°C 77% 9.2 mph SW14.8 kmh SW 15.0 mph24.1 kmh 30.19 in1022.4 mb - 0.00 in0.0 mm 0.00 in0.0 mm
08:30 PM 47.5°F8.6°C 40.7°F4.8°C 77% 9.2 mph SW14.8 kmh SW 15.0 mph24.1 kmh 30.19 in1022.4 mb - 0.00 in0.0 mm 0.00 in0.0 mm
08:35 PM 47.5°F8.6°C 40.6°F4.8°C 77% 10.4 mph SW16.7 kmh SW 13.8 mph22.2 kmh 30.19 in1022.4 mb - 0.00 in0.0 mm 0.00 in0.0 mm
08:40 PM 47.6°F8.7°C 40.7°F4.8°C 77% 11.5 mph SW18.5 kmh SW 19.6 mph31.5 kmh 30.19 in1022.4 mb - 0.00 in0.0 mm 0.00 in0.0 mm
08:45 PM 47.6°F8.7°C 40.7°F4.8°C 77% 8.1 mph WSW13.0 kmh WSW 12.7 mph20.4 kmh 30.19 in1022.4 mb - 0.00 in0.0 mm 0.00 in0.0 mm
08:50 PM 47.6°F8.7°C 40.7°F4.8°C 77% 11.5 mph WSW18.5 kmh WSW 16.1 mph25.9 kmh 30.19 in1022.4 mb - 0.00 in0.0 mm 0.00 in0.0 mm
08:55 PM 47.6°F8.7°C 40.8°F4.9°C 77% 8.1 mph SW13.0 kmh SW 16.1 mph25.9 kmh 30.19 in1022.4 mb - 0.00 in0.0 mm 0.00 in0.0 mm
09:00 PM 47.7°F8.7°C 40.8°F4.9°C 77% 12.7 mph WSW20.4 kmh WSW 19.6 mph31.5 kmh 30.18 in1022.0 mb - 0.00 in0.0 mm 0.00 in0.0 mm
09:05 PM 47.7°F8.7°C 40.8°F4.9°C 77% 11.5 mph WSW18.5 kmh WSW 12.7 mph20.4 kmh 30.18 in1022.0 mb - 0.00 in0.0 mm 0.00 in0.0 mm
09:10 PM 47.7°F8.7°C 40.8°F4.9°C 77% 13.8 mph SW22.2 kmh SW 19.6 mph31.5 kmh 30.18 in1022.0 mb - 0.00 in0.0 mm 0.00 in0.0 mm
09:15 PM 47.7°F8.7°C 40.8°F4.9°C 77% 11.5 mph SW18.5 kmh SW 12.7 mph20.4 kmh 30.17 in1021.7 mb - 0.00 in0.0 mm 0.00 in0.0 mm
09:20 PM 47.7°F8.7°C 41.2°F5.1°C 78% 11.5 mph WSW18.5 kmh WSW 15.0 mph24.1 kmh 30.17 in1021.7 mb - 0.00 in0.0 mm 0.00 in0.0 mm
09:25 PM 47.7°F8.7°C 41.2°F5.1°C 78% 13.8 mph SW22.2 kmh SW 20.7 mph33.3 kmh 30.17 in1021.7 mb - 0.00 in0.0 mm 0.00 in0.0 mm
09:30 PM 47.7°F8.7°C 41.2°F5.1°C 78% 10.4 mph SW16.7 kmh SW 16.1 mph25.9 kmh 30.17 in1021.7 mb - 0.00 in0.0 mm 0.00 in0.0 mm
09:35 PM 47.7°F8.7°C 41.2°F5.1°C 78% 10.4 mph WSW16.7 kmh WSW 16.1 mph25.9 kmh 30.17 in1021.7 mb - 0.00 in0.0 mm 0.00 in0.0 mm
09:40 PM 47.7°F8.7°C 41.2°F5.1°C 78% 11.5 mph WSW18.5 kmh WSW 16.1 mph25.9 kmh 30.17 in1021.7 mb - 0.00 in0.0 mm 0.00 in0.0 mm
09:45 PM 47.8°F8.8°C 41.3°F5.2°C 78% 10.4 mph WSW16.7 kmh WSW 13.8 mph22.2 kmh 30.17 in1021.7 mb - 0.00 in0.0 mm 0.00 in0.0 mm
09:50 PM 47.8°F8.8°C 41.0°F5.0°C 77% 12.7 mph WSW20.4 kmh WSW 12.7 mph20.4 kmh 30.17 in1021.7 mb - 0.00 in0.0 mm 0.00 in0.0 mm
09:55 PM 47.9°F8.8°C 41.0°F5.0°C 77% 13.8 mph SW22.2 kmh SW 21.9 mph35.2 kmh 30.16 in1021.3 mb - 0.00 in0.0 mm 0.00 in0.0 mm
10:00 PM 48.0°F8.9°C 41.2°F5.1°C 77% 12.7 mph SW20.4 kmh SW 15.0 mph24.1 kmh 30.17 in1021.7 mb - 0.00 in0.0 mm 0.00 in0.0 mm
10:05 PM 48.1°F8.9°C 41.2°F5.1°C 77% 10.4 mph SW16.7 kmh SW 15.0 mph24.1 kmh 30.17 in1021.7 mb - 0.00 in0.0 mm 0.00 in0.0 mm
10:10 PM 48.1°F8.9°C 41.2°F5.1°C 77% 10.4 mph SW16.7 kmh SW 15.0 mph24.1 kmh 30.17 in1021.7 mb - 0.00 in0.0 mm 0.00 in0.0 mm
10:15 PM 48.2°F9.0°C 41.3°F5.2°C 77% 10.4 mph SW16.7 kmh SW 16.1 mph25.9 kmh 30.16 in1021.3 mb - 0.00 in0.0 mm 0.00 in0.0 mm
10:20 PM 48.2°F9.0°C 42.3°F5.7°C 80% 10.4 mph WSW16.7 kmh WSW 15.0 mph24.1 kmh 30.16 in1021.3 mb - 0.00 in0.0 mm 0.00 in0.0 mm
10:25 PM 48.3°F9.1°C 41.4°F5.2°C 77% 10.4 mph WSW16.7 kmh WSW 13.8 mph22.2 kmh 30.16 in1021.3 mb - 0.00 in0.0 mm 0.00 in0.0 mm
10:30 PM 48.4°F9.1°C 41.5°F5.3°C 77% 10.4 mph WSW16.7 kmh WSW 17.3 mph27.8 kmh 30.16 in1021.3 mb - 0.00 in0.0 mm 0.00 in0.0 mm
10:35 PM 48.5°F9.2°C 41.6°F5.3°C 77% 11.5 mph WSW18.5 kmh WSW 19.6 mph31.5 kmh 30.16 in1021.3 mb - 0.00 in0.0 mm 0.00 in0.0 mm
10:40 PM 48.5°F9.2°C 41.6°F5.3°C 77% 9.2 mph SW14.8 kmh SW 13.8 mph22.2 kmh 30.16 in1021.3 mb - 0.00 in0.0 mm 0.00 in0.0 mm
10:45 PM 48.6°F9.2°C 41.7°F5.4°C 77% 8.1 mph WSW13.0 kmh WSW 11.5 mph18.5 kmh 30.16 in1021.3 mb - 0.00 in0.0 mm 0.00 in0.0 mm
10:50 PM 48.6°F9.2°C 41.7°F5.4°C 77% 9.2 mph WSW14.8 kmh WSW 13.8 mph22.2 kmh 30.16 in1021.3 mb - 0.00 in0.0 mm 0.00 in0.0 mm
10:55 PM 48.6°F9.2°C 41.7°F5.4°C 77% 11.5 mph WSW18.5 kmh WSW 13.8 mph22.2 kmh 30.15 in1021.0 mb - 0.00 in0.0 mm 0.00 in0.0 mm
11:00 PM 48.6°F9.2°C 41.7°F5.4°C 77% 10.4 mph WSW16.7 kmh WSW 13.8 mph22.2 kmh 30.15 in1021.0 mb - 0.00 in0.0 mm 0.00 in0.0 mm
11:05 PM 48.6°F9.2°C 41.7°F5.4°C 77% 9.2 mph SW14.8 kmh SW 13.8 mph22.2 kmh 30.15 in1021.0 mb - 0.00 in0.0 mm 0.00 in0.0 mm
11:10 PM 48.6°F9.2°C 41.7°F5.4°C 77% 10.4 mph WSW16.7 kmh WSW 15.0 mph24.1 kmh 30.15 in1021.0 mb - 0.00 in0.0 mm 0.00 in0.0 mm
11:15 PM 48.6°F9.2°C 41.7°F5.4°C 77% 12.7 mph WSW20.4 kmh WSW 19.6 mph31.5 kmh 30.15 in1021.0 mb - 0.00 in0.0 mm 0.00 in0.0 mm
11:20 PM 48.6°F9.2°C 41.7°F5.4°C 77% 10.4 mph WSW16.7 kmh WSW 13.8 mph22.2 kmh 30.15 in1021.0 mb - 0.00 in0.0 mm 0.00 in0.0 mm
11:25 PM 48.6°F9.2°C 41.7°F5.4°C 77% 10.4 mph WSW16.7 kmh WSW 17.3 mph27.8 kmh 30.15 in1021.0 mb - 0.00 in0.0 mm 0.00 in0.0 mm
11:30 PM 48.6°F9.2°C 41.7°F5.4°C 77% 8.1 mph SW13.0 kmh SW 11.5 mph18.5 kmh 30.15 in1021.0 mb - 0.00 in0.0 mm 0.00 in0.0 mm
11:35 PM 48.5°F9.2°C 41.6°F5.3°C 77% 6.9 mph WSW11.1 kmh WSW 11.5 mph18.5 kmh 30.15 in1021.0 mb - 0.00 in0.0 mm 0.00 in0.0 mm
11:40 PM 48.5°F9.2°C 41.6°F5.3°C 77% 9.2 mph WSW14.8 kmh WSW 11.5 mph18.5 kmh 30.15 in1021.0 mb - 0.00 in0.0 mm 0.00 in0.0 mm
11:45 PM 48.5°F9.2°C 41.6°F5.3°C 77% 6.9 mph WSW11.1 kmh WSW 10.4 mph16.7 kmh 30.15 in1021.0 mb - 0.00 in0.0 mm 0.00 in0.0 mm
11:50 PM 48.5°F9.2°C 41.7°F5.4°C 77% 9.2 mph SW14.8 kmh SW 11.5 mph18.5 kmh 30.15 in1021.0 mb - 0.00 in0.0 mm 0.00 in0.0 mm
11:55 PM 48.6°F9.2°C 41.7°F5.4°C 77% 8.1 mph WSW13.0 kmh WSW 11.5 mph18.5 kmh 30.15 in1021.0 mb - 0.00 in0.0 mm 0.00 in0.0 mm